TimeEDT,TemperatureF,Dew PointF,Humidity,Sea Level PressureIn,VisibilityMPH,Wind Direction,Wind SpeedMPH,Gust SpeedMPH,PrecipitationIn,Events,Conditions,WindDirDegrees,DateUTC
12:56 AM,66.9,62.1,84,30.03,10.0,ENE,4.6,-,N/A,,Clear,70,2013-08-30 04:56:00
1:56 AM,64.9,62.1,90,30.02,6.0,East,3.5,-,N/A,,Clear,80,2013-08-30 05:56:00
2:56 AM,64.0,60.1,87,30.01,8.0,East,4.6,-,N/A,,Clear,100,2013-08-30 06:56:00
3:56 AM,64.0,60.1,87,30.01,7.0,East,4.6,-,N/A,,Clear,80,2013-08-30 07:56:00
4:56 AM,64.0,60.1,87,30.00,6.0,Calm,Calm,-,N/A,,Clear,0,2013-08-30 08:56:00
5:56 AM,63.0,60.1,90,30.01,5.0,Calm,Calm,-,N/A,,Clear,0,2013-08-30 09:56:00
6:56 AM,62.1,60.1,93,30.01,3.0,East,3.5,-,N/A,,Clear,90,2013-08-30 10:56:00
7:09 AM,62.6,59.0,88,30.05,2.0,East,3.5,-,N/A,,Clear,90,2013-08-30 11:09:00
7:18 AM,62.6,60.8,94,30.05,1.8,Calm,Calm,-,N/A,,Clear,0,2013-08-30 11:18:00
7:26 AM,62.6,60.8,94,30.05,3.0,Calm,Calm,-,N/A,,Clear,0,2013-08-30 11:26:00
7:56 AM,66.0,63.0,90,30.01,5.0,Calm,Calm,-,N/A,,Clear,0,2013-08-30 11:56:00
8:56 AM,71.1,64.9,81,30.02,10.0,Calm,Calm,-,N/A,,Clear,0,2013-08-30 12:56:00
9:56 AM,73.9,66.0,76,30.01,10.0,SW,5.8,-,N/A,,Clear,230,2013-08-30 13:56:00
10:56 AM,78.1,64.9,64,30.00,10.0,SSW,8.1,-,N/A,,Clear,210,2013-08-30 14:56:00
11:56 AM,81.0,64.9,58,29.98,10.0,WSW,10.4,-,N/A,,Clear,240,2013-08-30 15:56:00
12:56 PM,82.0,62.1,51,29.96,10.0,SW,11.5,-,N/A,,Scattered Clouds,230,2013-08-30 16:56:00
1:56 PM,82.9,62.1,49,29.95,10.0,SSW,9.2,17.3,N/A,,Partly Cloudy,210,2013-08-30 17:56:00
2:56 PM,84.9,63.0,48,29.93,10.0,SW,15.0,19.6,N/A,,Scattered Clouds,220,2013-08-30 18:56:00
3:56 PM,84.0,64.0,51,29.91,10.0,SW,8.1,17.3,N/A,,Scattered Clouds,220,2013-08-30 19:56:00
4:56 PM,81.0,66.0,60,29.90,10.0,SSW,5.8,-,N/A,,Partly Cloudy,210,2013-08-30 20:56:00
5:56 PM,82.0,66.9,60,29.87,10.0,South,6.9,-,N/A,,Scattered Clouds,190,2013-08-30 21:56:00
6:56 PM,80.1,68.0,67,29.86,10.0,SSW,4.6,-,N/A,,Partly Cloudy,210,2013-08-30 22:56:00
7:56 PM,75.0,68.0,79,29.87,10.0,South,3.5,-,N/A,,Partly Cloudy,190,2013-08-30 23:56:00
8:56 PM,73.9,68.0,82,29.87,10.0,SSW,3.5,-,N/A,,Clear,210,2013-08-31 00:56:00
9:56 PM,75.0,68.0,79,29.86,10.0,SSW,4.6,-,N/A,,Partly Cloudy,210,2013-08-31 01:56:00
10:56 PM,73.0,66.9,81,29.85,9.0,SSW,4.6,-,N/A,,Partly Cloudy,210,2013-08-31 02:56:00
11:56 PM,72.0,66.9,84,29.85,9.0,SW,4.6,-,N/A,,Clear,230,2013-08-31 03:56:00